Time;durP1;ratioP1;P1;durP2;ratioP2;P2;SDS_P1;SDS_P2;PMS_P1;PMS_P2;Temp;Humidity;BMP_temperature;BMP_pressure;BME280_temperature;BME280_humidity;BME280_pressure;Samples;Min_cycle;Max_cycle;Signal;HPM_P1;HPM_P2
2021/04/14 09:41:52;;;;;;;3.35;1.17;;;;;;;19.69;27.51;99149.25;4999447;28;20403;-50
2021/04/14 09:44:46;;;;;;;3.13;1.23;;;;;;;18.98;28.87;99141.41;5000679;28;20030;-50
2021/04/14 09:49:17;;;;;;;4.15;1.20;;;;;;;18.93;29.07;99148.97;5089215;27;20366;-53
2021/04/14 09:52:03;;;;;;;3.42;1.10;;;;;;;18.80;29.30;99140.38;5087843;28;20073;-54
2021/04/14 09:54:31;;;;;;;2.33;1.05;;;;;;;18.67;29.54;99136.09;5087566;28;20032;-56
2021/04/14 09:56:58;;;;;;;4.10;1.38;;;;;;;18.52;29.60;99129.47;5071457;28;20457;-53
2021/04/14 09:59:43;;;;;;;3.90;1.30;;;;;;;18.46;29.61;99137.97;5087845;28;20536;-55
2021/04/14 10:02:22;;;;;;;3.85;1.30;;;;;;;18.47;29.53;99131.69;5088613;28;20343;-52
2021/04/14 10:04:47;;;;;;;3.30;1.25;;;;;;;18.42;29.40;99131.25;5071332;28;20181;-56
2021/04/14 10:07:27;;;;;;;4.28;1.33;;;;;;;18.41;29.58;99142.81;5089013;28;20552;-54
2021/04/14 10:10:09;;;;;;;2.95;1.17;;;;;;;18.43;29.31;99138.22;5072081;28;20039;-56
2021/04/14 10:12:35;;;;;;;4.18;1.25;;;;;;;18.49;29.18;99132.41;5088860;28;20471;-47
2021/04/14 10:15:01;;;;;;;3.38;1.20;;;;;;;18.54;30.19;99124.84;5024777;28;20049;-45
2021/04/14 10:17:28;;;;;;;3.72;1.30;;;;;;;18.42;30.66;99128.59;5048431;28;20392;-45
2021/04/14 10:19:55;;;;;;;3.95;1.15;;;;;;;18.36;30.95;99119.34;5048391;28;20045;-45
2021/04/14 10:22:26;;;;;;;3.63;1.10;;;;;;;18.14;31.24;99124.81;5048550;28;20029;-45
2021/04/14 10:25:06;;;;;;;4.18;1.30;;;;;;;18.21;31.06;99118.84;5047040;28;20071;-46
2021/04/14 10:27:32;;;;;;;4.00;1.58;;;;;;;18.26;30.85;99121.94;5048290;28;20026;-45
2021/04/14 10:29:59;;;;;;;2.90;1.08;;;;;;;18.22;30.87;99123.16;5046882;28;20080;-44
2021/04/14 10:32:25;;;;;;;5.05;1.27;;;;;;;18.29;30.76;99117.34;5047345;28;20025;-44
2021/04/14 10:34:51;;;;;;;2.90;1.10;;;;;;;18.32;30.66;99122.38;5047056;28;20036;-44
2021/04/14 10:37:22;;;;;;;3.50;1.20;;;;;;;18.30;30.79;99113.69;5046824;28;20025;-45
2021/04/14 10:39:48;;;;;;;2.75;1.10;;;;;;;18.32;30.65;99114.44;5047617;28;20029;-44
2021/04/14 10:42:18;;;;;;;2.53;1.10;;;;;;;18.34;30.70;99112.47;5042421;28;20030;-44
2021/04/14 10:44:43;;;;;;;3.38;1.10;;;;;;;18.31;31.05;99112.75;5028360;28;20036;-44
2021/04/14 10:47:18;;;;;;;3.10;1.00;;;;;;;18.30;30.80;99106.56;5027506;28;20051;-45
2021/04/14 10:49:44;;;;;;;2.53;1.20;;;;;;;18.30;30.98;99105.75;5026540;28;20033;-46
2021/04/14 10:52:22;;;;;;;2.70;1.00;;;;;;;18.30;31.03;99100.44;5010358;28;20021;-45
2021/04/14 10:54:49;;;;;;;2.97;1.13;;;;;;;18.32;30.94;99101.16;5027149;28;20030;-46
2021/04/14 10:57:40;;;;;;;2.65;1.00;;;;;;;18.30;31.07;99095.13;5043278;28;20022;-45
2021/04/14 11:00:17;;;;;;;5.47;1.17;;;;;;;18.51;30.24;99095.91;5016803;28;20042;-51
2021/04/14 11:02:44;;;;;;;2.28;1.00;;;;;;;18.63;29.96;99092.19;5014827;28;20034;-45
2021/04/14 11:05:10;;;;;;;4.43;1.25;;;;;;;18.74;29.88;99088.59;5013474;28;20033;-48
2021/04/14 11:07:36;;;;;;;3.20;1.13;;;;;;;18.81;29.84;99089.75;5013518;28;20096;-53
2021/04/14 11:10:04;;;;;;;3.25;1.20;;;;;;;18.84;29.82;99083.31;5029640;28;20429;-47
2021/04/14 11:12:29;;;;;;;3.80;1.05;;;;;;;18.82;29.82;99075.47;5013469;28;20021;-47
2021/04/14 11:15:18;;;;;;;3.55;0.80;;;;;;;18.83;29.95;99081.66;4996895;28;20081;-50
2021/04/14 11:17:43;;;;;;;4.75;1.40;;;;;;;18.80;29.86;99080.09;4999511;28;20112;-49
2021/04/14 11:20:12;;;;;;;2.88;0.90;;;;;;;18.87;29.81;99080.41;5012987;28;20109;-48
2021/04/14 11:22:45;;;;;;;3.50;1.05;;;;;;;18.91;29.88;99079.97;5013195;28;20176;-46
2021/04/14 11:25:24;;;;;;;2.97;1.02;;;;;;;18.93;29.88;99069.22;5014212;28;20361;-50
2021/04/14 11:28:03;;;;;;;3.22;1.10;;;;;;;19.12;29.60;99071.91;5013024;28;20435;-45
2021/04/14 11:30:29;;;;;;;1.80;0.80;;;;;;;19.44;29.00;99069.00;5014100;28;20491;-49
2021/04/14 11:32:56;;;;;;;3.72;1.10;;;;;;;19.35;29.23;99059.19;5029477;28;20025;-48
2021/04/14 11:35:37;;;;;;;2.25;0.90;;;;;;;19.67;28.47;99061.56;5013111;28;20096;-48
2021/04/14 11:38:02;;;;;;;2.90;0.90;;;;;;;19.98;28.23;99053.38;5013007;28;20025;-49
2021/04/14 11:40:37;;;;;;;3.30;0.93;;;;;;;19.67;28.54;99060.72;5013942;28;20396;-50
2021/04/14 11:43:35;;;;;;;3.20;1.05;;;;;;;19.10;29.53;99065.91;5014222;28;20026;-51
2021/04/14 11:46:04;;;;;;;3.10;1.00;;;;;;;18.99;29.64;99066.00;5007411;28;20038;-51
2021/04/14 11:48:35;;;;;;;2.65;1.00;;;;;;;19.00;29.67;99061.53;5013634;28;20110;-47
2021/04/14 11:51:14;;;;;;;2.92;1.20;;;;;;;18.89;30.06;99062.47;5013667;28;20509;-46
2021/04/14 11:53:48;;;;;;;2.38;0.93;;;;;;;18.89;29.84;99065.13;5028972;28;20040;-46
2021/04/14 11:56:35;;;;;;;2.47;1.00;;;;;;;18.89;30.07;99057.16;4996597;28;20097;-45
2021/04/14 11:59:00;;;;;;;2.10;0.90;;;;;;;18.88;29.86;99059.00;5012535;28;20030;-49
2021/04/14 12:01:30;;;;;;;5.32;1.67;;;;;;;18.84;29.97;99059.41;5012252;28;20026;-49
2021/04/14 12:03:55;;;;;;;9.63;3.92;;;;;;;18.83;29.83;99063.06;5012441;28;20030;-52
2021/04/14 12:06:21;;;;;;;6.15;2.25;;;;;;;18.79;29.86;99053.66;5013583;28;20022;-52
2021/04/14 12:08:47;;;;;;;6.57;1.85;;;;;;;18.76;29.98;99054.78;5013176;28;20018;-53
2021/04/14 12:11:19;;;;;;;5.03;1.75;;;;;;;18.74;29.71;99057.56;5012323;28;20029;-53
2021/04/14 12:13:45;;;;;;;6.15;1.83;;;;;;;18.78;29.41;99059.94;5013344;28;20034;-47
2021/04/14 12:16:11;;;;;;;4.22;1.60;;;;;;;18.78;29.72;99057.28;5013580;28;20033;-47
2021/04/14 12:18:36;;;;;;;4.53;1.60;;;;;;;18.85;29.61;99056.59;5013190;28;20018;-47
2021/04/14 12:21:02;;;;;;;5.10;1.63;;;;;;;18.87;29.80;99048.50;5013124;28;20026;-47
2021/04/14 12:23:27;;;;;;;4.65;1.33;;;;;;;18.86;29.74;99053.00;5013113;28;20041;-51
2021/04/14 12:25:52;;;;;;;3.97;1.20;;;;;;;18.93;29.79;99045.31;5013243;28;20081;-48
2021/04/14 12:28:18;;;;;;;4.95;1.40;;;;;;;18.97;29.78;99044.03;5011480;28;20037;-45
2021/04/14 12:30:43;;;;;;;4.63;1.55;;;;;;;19.11;29.62;99048.13;5012897;28;20088;-50
2021/04/14 12:33:09;;;;;;;5.60;1.35;;;;;;;19.26;29.02;99048.53;5013185;28;20034;-50
2021/04/14 12:35:34;;;;;;;3.35;1.13;;;;;;;19.57;28.46;99042.06;5013052;28;20022;-49
2021/04/14 12:38:03;;;;;;;4.68;1.50;;;;;;;19.23;28.66;99040.84;5012802;28;20393;-53
2021/04/14 12:40:28;;;;;;;3.50;1.30;;;;;;;19.11;28.91;99038.31;5012708;28;20061;-53
2021/04/14 12:42:54;;;;;;;3.58;1.08;;;;;;;19.10;29.37;99035.81;5012910;28;20040;-50
2021/04/14 12:45:19;;;;;;;2.90;1.15;;;;;;;19.13;29.38;99041.69;5013193;28;20033;-46
2021/04/14 12:47:45;;;;;;;4.75;1.25;;;;;;;19.14;29.18;99037.22;5012606;28;20030;-54
2021/04/14 12:50:10;;;;;;;2.83;1.10;;;;;;;18.89;29.44;99027.94;5012555;28;20026;-46
2021/04/14 12:52:46;;;;;;;3.28;1.20;;;;;;;18.87;29.64;99040.53;5012671;28;20021;-46
2021/04/14 12:55:22;;;;;;;3.25;1.20;;;;;;;18.81;29.47;99038.41;5012908;28;20026;-47
2021/04/14 12:57:47;;;;;;;4.55;1.20;;;;;;;18.85;29.50;99038.00;5027937;28;20033;-49
2021/04/14 13:00:15;;;;;;;3.92;0.98;;;;;;;18.72;29.76;99032.97;4994858;28;20034;-48
2021/04/14 13:02:51;;;;;;;3.83;1.27;;;;;;;18.79;29.92;99041.22;5027780;28;20021;-47
2021/04/14 13:05:25;;;;;;;3.45;1.10;;;;;;;18.75;30.02;99042.44;5012487;28;20107;-45
2021/04/14 13:08:03;;;;;;;3.00;0.93;;;;;;;18.70;30.22;99032.22;5011183;28;20064;-50
2021/04/14 13:10:54;;;;;;;6.28;1.00;;;;;;;18.73;30.17;99031.97;5012369;28;20025;-51
2021/04/14 13:13:19;;;;;;;3.90;1.10;;;;;;;18.77;30.06;99045.00;5011302;28;20342;-52
2021/04/14 13:15:48;;;;;;;2.58;1.00;;;;;;;18.70;30.28;99034.88;4983222;28;20179;-46
2021/04/14 13:18:13;;;;;;;1.98;1.00;;;;;;;18.71;30.14;99027.72;5033003;28;20021;-51
2021/04/14 13:20:38;;;;;;;2.97;0.90;;;;;;;18.78;30.02;99028.88;5030667;28;20021;-48
2021/04/14 13:23:15;;;;;;;3.92;1.20;;;;;;;18.79;30.10;99019.09;5047157;28;20041;-55
2021/04/14 13:26:01;;;;;;;3.08;1.02;;;;;;;18.64;30.47;99015.97;5030819;28;20109;-53
2021/04/14 13:28:36;;;;;;;3.65;0.90;;;;;;;18.71;30.16;99017.09;5030571;28;20027;-46
2021/04/14 13:31:15;;;;;;;2.90;1.00;;;;;;;18.80;30.22;99012.81;5030569;28;20026;-47
2021/04/14 13:33:46;;;;;;;3.60;1.00;;;;;;;18.82;30.01;99022.31;5030757;28;20400;-55
2021/04/14 13:36:27;;;;;;;3.88;1.10;;;;;;;18.83;29.69;99012.56;5047216;28;20026;-51
2021/04/14 13:39:05;;;;;;;4.03;1.08;;;;;;;18.87;29.64;99014.78;5031441;28;20499;-51
2021/04/14 13:41:35;;;;;;;3.00;1.00;;;;;;;18.90;29.50;99000.38;5034613;28;20488;-54
2021/04/14 13:44:02;;;;;;;2.75;1.00;;;;;;;18.93;29.26;99008.09;5051781;28;20032;-58
2021/04/14 13:46:38;;;;;;;4.28;1.00;;;;;;;18.89;29.34;99006.66;5051723;28;20166;-47
2021/04/14 13:49:10;;;;;;;2.85;0.85;;;;;;;18.92;29.29;98996.59;5051144;28;20036;-49
2021/04/14 13:52:05;;;;;;;2.63;1.00;;;;;;;18.91;29.50;98999.41;5034233;28;20039;-54
2021/04/14 13:54:31;;;;;;;2.38;0.95;;;;;;;18.87;29.83;98995.34;5064753;28;20112;-50
2021/04/14 13:56:57;;;;;;;3.00;1.00;;;;;;;18.91;29.74;98997.59;5050283;28;20112;-48
2021/04/14 13:59:44;;;;;;;2.42;0.93;;;;;;;18.90;29.46;98987.09;5050011;28;20112;-48
2021/04/14 14:02:44;;;;;;;2.55;0.90;;;;;;;18.89;29.62;98990.72;5050260;28;20032;-48
2021/04/14 14:05:14;;;;;;;2.53;1.00;;;;;;;18.88;29.45;98987.22;5050622;28;20083;-51
2021/04/14 14:07:59;;;;;;;2.72;1.00;;;;;;;18.91;29.58;98988.78;5050181;28;20044;-50
2021/04/14 14:10:29;;;;;;;2.58;1.08;;;;;;;18.94;29.54;98989.34;5050107;28;20029;-49
2021/04/14 14:13:05;;;;;;;3.97;0.93;;;;;;;18.91;29.69;98983.47;5050129;28;20115;-53
2021/04/14 14:15:35;;;;;;;7.10;1.10;;;;;;;18.89;29.68;98982.75;5051385;28;20181;-51
2021/04/14 14:18:00;;;;;;;2.10;0.80;;;;;;;18.38;30.60;98981.94;5033660;28;20017;-42
2021/04/14 14:20:29;;;;;;;5.10;1.13;;;;;;;18.68;30.26;98986.31;5033213;28;20150;-50
2021/04/14 14:23:01;;;;;;;3.17;0.77;;;;;;;18.93;29.74;98985.00;5050049;28;20035;-49
2021/04/14 14:25:27;;;;;;;3.53;1.10;;;;;;;18.95;29.75;98985.69;5051274;28;20024;-50
2021/04/14 14:27:52;;;;;;;3.28;1.13;;;;;;;18.94;29.72;98988.50;5051140;28;20071;-55
2021/04/14 14:30:18;;;;;;;1.92;1.00;;;;;;;18.91;29.67;98989.59;5050951;28;20031;-49
2021/04/14 14:32:43;;;;;;;3.50;1.20;;;;;;;18.96;29.75;98991.88;5051053;28;20017;-47
2021/04/14 14:35:10;;;;;;;2.83;1.10;;;;;;;18.93;29.62;98992.16;5045973;28;20025;-48
2021/04/14 14:37:44;;;;;;;2.28;0.90;;;;;;;18.94;29.58;98991.16;5054953;28;20024;-47
2021/04/14 14:40:10;;;;;;;3.92;1.00;;;;;;;18.90;29.60;98997.72;5053320;28;20048;-47
2021/04/14 14:42:43;;;;;;;1.98;0.90;;;;;;;18.93;29.57;98989.50;5054925;28;20082;-47
2021/04/14 14:45:11;;;;;;;3.60;0.80;;;;;;;18.92;29.56;98985.13;5037238;28;20492;-47
2021/04/14 14:47:38;;;;;;;4.35;1.00;;;;;;;18.88;29.37;98989.03;5054653;28;20025;-45
2021/04/14 14:50:07;;;;;;;3.67;0.90;;;;;;;18.93;29.66;98987.66;5053164;28;20544;-48
2021/04/14 14:52:33;;;;;;;4.10;1.02;;;;;;;18.95;29.76;98979.53;5037028;28;20051;-48
2021/04/14 14:55:05;;;;;;;2.70;1.00;;;;;;;18.92;29.59;98980.66;5036869;28;20031;-47
2021/04/14 14:57:32;;;;;;;3.05;1.35;;;;;;;18.94;29.66;98985.84;5036952;28;20028;-51
2021/04/14 14:59:59;;;;;;;2.50;0.98;;;;;;;18.92;29.55;98985.13;5052868;28;20032;-48
2021/04/14 15:02:27;;;;;;;2.40;0.80;;;;;;;18.97;29.59;98983.75;5053431;28;20024;-49
2021/04/14 15:04:52;;;;;;;2.22;1.00;;;;;;;19.03;29.69;98977.03;5053411;28;20483;-50
2021/04/14 15:07:20;;;;;;;2.40;0.95;;;;;;;19.05;29.43;98977.72;5054270;28;20088;-49
2021/04/14 15:09:46;;;;;;;3.10;1.20;;;;;;;19.04;29.49;98970.72;5054004;28;20033;-45
2021/04/14 15:12:13;;;;;;;3.58;1.30;;;;;;;19.01;29.60;98978.16;5054159;28;20056;-49
2021/04/14 15:14:39;;;;;;;2.60;1.20;;;;;;;19.05;29.62;98972.41;5054358;28;20052;-46
2021/04/14 15:17:04;;;;;;;3.85;1.00;;;;;;;19.06;29.64;98974.06;5053167;28;20025;-47
2021/04/14 15:19:30;;;;;;;4.43;1.10;;;;;;;19.02;29.80;98969.19;5053880;28;20031;-47
2021/04/14 15:21:55;;;;;;;3.88;1.20;;;;;;;19.07;29.54;98972.28;5053959;28;20017;-50
2021/04/14 15:24:21;;;;;;;2.15;0.98;;;;;;;19.06;29.49;98971.41;5053984;28;20025;-50
2021/04/14 15:26:51;;;;;;;4.55;1.60;;;;;;;19.09;29.65;98967.63;5052642;28;20392;-51
2021/04/14 15:29:20;;;;;;;4.78;1.60;;;;;;;19.12;29.47;98975.34;5053841;28;20028;-51
2021/04/14 15:31:45;;;;;;;2.22;1.20;;;;;;;19.15;29.48;98970.56;5053687;28;20112;-49
2021/04/14 15:34:10;;;;;;;5.90;3.90;;;;;;;12.31;28.27;98975.00;5053828;28;20086;-42
2021/04/14 15:36:36;;;;;;;7.22;2.92;;;;;;;9.81;31.48;98979.94;5053090;28;20020;-41
2021/04/14 15:39:04;;;;;;;7.18;3.80;;;;;;;9.26;32.47;98979.25;5034623;28;20017;-41
2021/04/14 15:41:29;;;;;;;6.60;2.70;;;;;;;13.11;30.98;98976.84;5033266;28;20018;-41
2021/04/14 15:43:57;;;;;;;7.05;2.00;;;;;;;15.94;28.88;98966.09;5031086;28;20048;-41
2021/04/14 15:46:22;;;;;;;3.05;1.30;;;;;;;17.28;28.66;98960.44;5032772;28;20033;-40
2021/04/14 15:48:48;;;;;;;3.60;1.58;;;;;;;18.00;28.14;98956.13;5033496;28;20033;-42
2021/04/14 15:51:14;;;;;;;5.10;1.77;;;;;;;18.39;27.67;98951.75;5032486;28;20056;-40
2021/04/14 15:53:40;;;;;;;2.47;1.40;;;;;;;18.65;27.44;98949.44;5033586;28;20025;-40
2021/04/14 15:56:06;;;;;;;5.95;1.63;;;;;;;18.76;27.76;98959.13;5033528;28;20131;-39
2021/04/14 15:58:32;;;;;;;2.67;1.30;;;;;;;18.80;27.69;98943.72;5033411;28;20067;-43
2021/04/14 16:00:58;;;;;;;2.90;1.40;;;;;;;18.90;27.82;98945.41;5033581;28;20028;-42
2021/04/14 16:03:23;;;;;;;3.53;1.40;;;;;;;18.96;27.76;98947.50;5033267;28;20033;-40
2021/04/14 16:05:49;;;;;;;3.80;1.55;;;;;;;19.04;27.83;98946.81;5033386;28;20052;-50
2021/04/14 16:08:15;;;;;;;3.38;1.35;;;;;;;19.13;28.00;98950.41;5033150;28;20019;-54
2021/04/14 16:10:40;;;;;;;3.33;1.58;;;;;;;19.17;27.73;98946.53;5033059;28;20034;-51
2021/04/14 16:13:06;;;;;;;5.00;1.40;;;;;;;19.23;27.67;98947.75;5033287;28;20393;-54
2021/04/14 16:15:33;;;;;;;3.35;1.50;;;;;;;19.19;28.12;98937.41;5033325;28;20044;-54
2021/04/14 16:18:13;;;;;;;4.80;1.42;;;;;;;19.21;28.07;98945.25;5033108;28;20021;-53
2021/04/14 16:20:40;;;;;;;3.72;1.60;;;;;;;19.21;28.37;98946.09;5031663;28;20044;-55
2021/04/14 16:23:05;;;;;;;3.55;1.20;;;;;;;19.28;28.27;98949.03;5048410;28;20484;-56
2021/04/14 16:25:31;;;;;;;3.63;1.42;;;;;;;19.24;28.38;98949.47;5033046;28;20061;-55
2021/04/14 16:27:57;;;;;;;5.70;1.38;;;;;;;19.18;28.60;98949.03;5032950;28;20041;-53
2021/04/14 16:30:23;;;;;;;4.03;1.40;;;;;;;19.23;28.57;98950.41;5032423;28;20022;-52
2021/04/14 16:32:48;;;;;;;2.97;1.48;;;;;;;18.18;21.51;98943.03;5032902;28;20032;-61
2021/04/14 16:35:14;;;;;;;4.25;1.70;;;;;;;10.82;29.03;98961.25;5032888;28;20034;-59
2021/04/14 16:37:39;;;;;;;10.07;8.52;;;;;;;10.29;30.69;98954.63;5032476;28;20013;-45
2021/04/14 16:40:05;;;;;;;6.07;2.83;;;;;;;10.11;30.73;98952.06;5032475;28;20029;-47
2021/04/14 16:42:31;;;;;;;5.70;2.83;;;;;;;10.17;30.11;98956.13;5032568;28;20025;-46
2021/04/14 16:44:56;;;;;;;7.65;4.82;;;;;;;10.10;30.50;98957.41;5032583;28;20384;-46
2021/04/14 16:47:22;;;;;;;6.60;2.47;;;;;;;10.02;29.97;98959.59;5032325;28;20033;-47
2021/04/14 16:49:47;;;;;;;6.93;2.78;;;;;;;9.94;30.53;98965.22;5032228;28;20508;-48
2021/04/14 16:52:12;;;;;;;8.02;3.38;;;;;;;9.97;30.25;98954.59;5032327;28;20021;-50
2021/04/14 16:54:38;;;;;;;5.80;2.90;;;;;;;9.87;30.40;98948.16;5032547;28;20036;-54
2021/04/14 16:57:04;;;;;;;4.78;1.50;;;;;;;9.60;30.98;98953.94;5032055;28;20392;-42
2021/04/14 17:02:11;;;;;;;7.03;2.40;;;;;;;19.92;16.89;98931.47;5127902;27;758254;-63
2021/04/14 17:04:37;;;;;;;2.95;1.33;;;;;;;18.23;18.16;98931.00;5042081;28;20040;-63
2021/04/14 17:07:02;;;;;;;3.63;1.40;;;;;;;16.93;19.31;98928.09;5109457;28;20398;-63
2021/04/14 17:09:28;;;;;;;8.10;2.70;;;;;;;17.29;19.03;98925.00;5097043;28;20387;-60
2021/04/14 17:11:53;;;;;;;3.95;1.50;;;;;;;16.95;19.61;98926.16;5070908;28;20040;-62
2021/04/14 17:14:18;;;;;;;5.80;2.17;;;;;;;13.18;23.46;98930.72;5088225;28;20418;-61
2021/04/14 17:16:47;;;;;;;6.57;2.30;;;;;;;11.36;26.08;98924.81;5087679;28;20387;-62
2021/04/14 17:19:14;;;;;;;3.28;1.90;;;;;;;11.33;27.51;98927.63;5071047;28;20564;-64
2021/04/14 17:21:39;;;;;;;4.97;2.35;;;;;;;11.04;27.35;98932.81;5087092;28;20091;-62
2021/04/14 17:24:05;;;;;;;4.25;1.85;;;;;;;10.23;29.00;98935.66;5088762;28;20051;-61
2021/04/14 17:26:31;;;;;;;6.20;2.30;;;;;;;10.27;28.62;98940.78;5070779;28;20031;-61
2021/04/14 17:28:57;;;;;;;5.80;2.17;;;;;;;9.11;31.07;98948.59;5087606;28;20020;-61
2021/04/14 17:31:23;;;;;;;4.45;2.08;;;;;;;8.92;32.10;98942.63;5088471;28;20029;-61
2021/04/14 17:33:48;;;;;;;3.17;1.25;;;;;;;8.42;32.96;98943.31;5088675;28;20039;-62
2021/04/14 17:36:13;;;;;;;1.85;0.88;;;;;;;8.54;32.47;98940.97;5088740;28;20028;-63
2021/04/14 17:38:39;;;;;;;9.00;2.70;;;;;;;8.43;33.04;98937.16;5087494;28;20020;-63
2021/04/14 17:41:04;;;;;;;3.78;1.50;;;;;;;7.94;33.37;98924.63;5088332;28;20022;-62
2021/04/14 17:43:30;;;;;;;3.05;1.15;;;;;;;7.84;33.76;98945.13;5087368;28;20020;-62
2021/04/14 17:45:55;;;;;;;2.45;0.95;;;;;;;7.73;33.93;98944.75;5088470;28;20039;-61
2021/04/14 17:48:20;;;;;;;3.65;1.27;;;;;;;7.50;33.80;98940.56;5064717;28;20025;-61
2021/04/14 17:50:48;;;;;;;3.67;1.73;;;;;;;7.62;33.83;98952.22;5067727;28;20082;-61
2021/04/14 17:53:13;;;;;;;4.70;1.35;;;;;;;7.57;33.04;98948.94;5083711;28;20032;-62
2021/04/14 17:55:38;;;;;;;4.30;1.33;;;;;;;7.55;32.11;98953.41;5066816;28;20035;-60
2021/04/14 17:58:06;;;;;;;5.13;1.38;;;;;;;7.46;33.02;98948.59;5053912;28;20025;-60
2021/04/14 18:00:32;;;;;;;3.85;1.30;;;;;;;7.42;33.36;98950.47;5046465;28;20555;-63
2021/04/14 18:02:57;;;;;;;4.32;1.73;;;;;;;7.34;33.51;98947.38;4995496;28;20049;-63
2021/04/14 18:05:25;;;;;;;3.42;1.50;;;;;;;7.20;37.82;98961.00;4896224;28;20054;-59
2021/04/14 18:08:28;;;;;;;5.55;2.00;;;;;;;7.05;34.85;98961.66;4989997;27;20406;-49
2021/04/14 18:10:54;;;;;;;4.10;1.60;;;;;;;6.75;34.89;98959.41;4926118;28;60212;-51
2021/04/14 18:13:19;;;;;;;4.63;2.03;;;;;;;6.36;35.88;98965.31;5023760;28;20030;-49
2021/04/14 18:15:45;;;;;;;5.47;1.80;;;;;;;6.27;36.76;98968.28;5016334;28;20053;-50
2021/04/14 18:18:27;;;;;;;4.25;1.70;;;;;;;6.12;37.68;98968.88;5033876;28;20033;-53
2021/04/14 18:20:52;;;;;;;4.72;1.85;;;;;;;5.86;38.09;98975.88;5034859;28;20029;-49
2021/04/14 18:23:18;;;;;;;4.82;1.70;;;;;;;5.93;38.30;98973.94;5034029;28;20029;-50
2021/04/14 18:25:44;;;;;;;5.82;2.17;;;;;;;5.82;38.26;98982.13;5050015;28;20022;-54
2021/04/14 18:28:09;;;;;;;8.10;2.17;;;;;;;5.87;39.00;98981.94;5036073;28;20036;-51
2021/04/14 18:30:34;;;;;;;5.35;1.85;;;;;;;5.63;39.12;98986.28;5038966;28;20028;-53
2021/04/14 18:33:00;;;;;;;4.85;1.60;;;;;;;5.44;39.75;98986.94;5037098;28;20029;-54
2021/04/14 18:35:25;;;;;;;4.30;1.70;;;;;;;5.51;39.80;98981.53;5036682;28;20028;-55
2021/04/14 18:37:52;;;;;;;6.97;2.28;;;;;;;5.45;40.76;98988.63;5035252;28;20369;-51
2021/04/14 18:40:18;;;;;;;4.78;2.00;;;;;;;5.43;42.21;98990.44;5033349;28;20489;-48
2021/04/14 18:42:43;;;;;;;5.30;1.90;;;;;;;5.28;41.88;98992.75;5034509;28;20029;-51
2021/04/14 18:45:10;;;;;;;4.82;1.90;;;;;;;5.13;42.73;98994.13;5021544;28;20034;-54
2021/04/14 18:47:36;;;;;;;6.45;2.25;;;;;;;5.09;42.53;98995.94;5013977;28;20117;-50
2021/04/14 18:50:03;;;;;;;6.95;2.70;;;;;;;4.98;42.33;98992.88;5014949;28;20536;-52
2021/04/14 18:52:30;;;;;;;7.63;3.17;;;;;;;5.00;43.61;98997.13;4997411;28;20026;-53
2021/04/14 18:54:55;;;;;;;7.90;2.90;;;;;;;4.89;44.50;98999.25;5014820;28;20032;-50
2021/04/14 18:57:21;;;;;;;7.13;2.20;;;;;;;4.76;45.73;99001.38;5014012;28;20200;-55
2021/04/14 18:59:47;;;;;;;7.97;2.40;;;;;;;4.55;46.21;99004.66;5014606;28;20050;-55
2021/04/14 19:02:12;;;;;;;8.40;2.42;;;;;;;4.40;47.12;99005.13;5018504;28;20042;-53
2021/04/14 19:04:38;;;;;;;5.18;2.50;;;;;;;4.16;48.00;99004.97;5034669;28;20018;-50
2021/04/14 19:07:03;;;;;;;15.25;6.68;;;;;;;4.14;48.33;99011.13;5035227;28;20030;-53
2021/04/14 19:09:29;;;;;;;9.45;4.22;;;;;;;3.91;48.77;99007.44;5036018;28;20037;-50
2021/04/14 19:11:54;;;;;;;13.10;8.73;;;;;;;3.78;49.09;99014.72;5037290;28;20026;-54
2021/04/14 19:14:20;;;;;;;11.30;4.80;;;;;;;4.00;48.32;99017.56;5035354;28;20034;-54
2021/04/14 19:16:45;;;;;;;10.07;5.75;;;;;;;3.90;49.75;99018.72;5033928;28;20493;-50
2021/04/14 19:19:13;;;;;;;10.85;7.30;;;;;;;3.79;49.19;99018.19;5022297;28;20034;-53
2021/04/14 19:21:38;;;;;;;7.53;4.10;;;;;;;3.92;49.13;99019.53;5021905;28;20089;-53
2021/04/14 19:24:04;;;;;;;9.05;4.47;;;;;;;3.80;49.10;99012.09;5019162;28;20367;-53
2021/04/14 19:26:29;;;;;;;8.07;4.10;;;;;;;3.84;49.20;99016.31;5016595;28;104041;-56
2021/04/14 19:28:55;;;;;;;8.32;4.18;;;;;;;3.75;49.45;99012.25;5025176;28;20448;-55
2021/04/14 19:31:20;;;;;;;8.73;3.90;;;;;;;3.83;49.62;99018.94;5023134;28;20041;-53
2021/04/14 19:33:46;;;;;;;12.02;4.80;;;;;;;3.84;49.69;99021.50;5021200;28;20026;-55
2021/04/14 19:36:11;;;;;;;69.90;21.30;;;;;;;3.75;49.61;99017.44;5021681;28;20034;-53
2021/04/14 19:38:37;;;;;;;81.97;37.97;;;;;;;3.74;49.59;99027.84;5018126;28;20034;-54
2021/04/14 19:41:02;;;;;;;18.35;10.63;;;;;;;3.62;50.31;99018.66;5018624;28;20026;-52
2021/04/14 19:43:28;;;;;;;9.27;4.20;;;;;;;3.59;50.36;99031.72;5019943;28;20041;-53
2021/04/14 19:45:54;;;;;;;12.73;6.28;;;;;;;3.34;51.43;99028.91;5020375;28;20041;-51
2021/04/14 19:48:19;;;;;;;8.98;4.68;;;;;;;3.24;52.39;99023.13;5020058;28;20056;-52
2021/04/14 19:50:45;;;;;;;9.18;4.00;;;;;;;3.20;52.41;99023.22;5016781;28;20564;-53
2021/04/14 19:53:11;;;;;;;7.72;3.67;;;;;;;3.04;53.24;99023.63;5016443;28;20037;-54
2021/04/14 19:55:37;;;;;;;7.38;3.10;;;;;;;3.13;53.23;99026.84;5027780;28;20021;-54
2021/04/14 19:58:02;;;;;;;8.13;3.03;;;;;;;2.88;53.86;99026.63;5002595;28;20430;-54
2021/04/14 20:00:29;;;;;;;7.93;3.25;;;;;;;2.73;54.25;99025.25;5019272;28;20036;-57
2021/04/14 20:02:54;;;;;;;8.18;3.67;;;;;;;2.74;54.72;99032.13;5017210;28;20034;-55
2021/04/14 20:05:20;;;;;;;9.23;3.35;;;;;;;2.59;55.08;99039.38;5018295;28;20033;-56
2021/04/14 20:07:45;;;;;;;7.63;3.35;;;;;;;2.54;55.44;99028.25;5019520;28;20057;-55
2021/04/14 20:10:12;;;;;;;8.02;4.00;;;;;;;2.51;55.93;99032.66;5017145;28;20029;-51
2021/04/14 20:12:37;;;;;;;10.90;5.40;;;;;;;2.47;56.10;99034.47;4999803;28;20033;-51
2021/04/14 20:15:03;;;;;;;9.23;4.90;;;;;;;2.37;56.21;99026.09;5015843;28;20021;-51
2021/04/14 20:17:29;;;;;;;19.02;7.40;;;;;;;2.53;55.53;99038.69;5014832;28;20393;-55
2021/04/14 20:19:54;;;;;;;15.88;6.43;;;;;;;2.55;55.82;99045.53;5015586;28;20393;-54
2021/04/14 20:22:20;;;;;;;11.80;5.95;;;;;;;2.43;56.09;99044.94;5016024;28;20025;-53
2021/04/14 20:24:45;;;;;;;13.35;5.80;;;;;;;2.55;55.63;99040.34;4997952;28;20044;-54
2021/04/14 20:27:11;;;;;;;17.17;6.68;;;;;;;2.60;55.31;99045.41;5013819;28;20397;-57
2021/04/14 20:29:36;;;;;;;20.10;6.65;;;;;;;2.43;55.70;99050.97;5013299;28;20026;-55
2021/04/14 20:32:03;;;;;;;12.93;6.13;;;;;;;2.23;56.42;99054.00;5014541;28;20032;-51
2021/04/14 20:34:29;;;;;;;10.88;5.53;;;;;;;2.34;56.49;99056.34;4976523;28;20130;-50
2021/04/14 20:36:54;;;;;;;10.52;5.13;;;;;;;2.37;57.06;99048.50;4992455;28;20038;-49
2021/04/14 20:39:19;;;;;;;10.13;4.82;;;;;;;2.31;57.51;99051.25;4992049;28;20030;-50
2021/04/14 20:41:45;;;;;;;10.80;5.03;;;;;;;2.32;57.57;99053.78;4993370;28;20022;-52
2021/04/14 20:44:10;;;;;;;13.10;6.28;;;;;;;2.43;57.13;99060.47;4993599;28;20505;-53
2021/04/14 20:46:36;;;;;;;12.95;5.85;;;;;;;2.27;56.70;99054.78;4996465;28;20048;-56
2021/04/14 20:49:01;;;;;;;18.02;9.30;;;;;;;2.09;58.04;99062.03;5011805;28;20034;-53
2021/04/14 20:51:27;;;;;;;12.07;5.82;;;;;;;2.02;58.36;99047.53;5009022;28;20026;-55
2021/04/14 20:53:52;;;;;;;12.13;6.63;;;;;;;1.99;58.07;99060.53;4998822;28;20034;-55
2021/04/14 20:56:18;;;;;;;9.38;4.68;;;;;;;1.83;58.95;99059.16;5012946;28;20033;-51
2021/04/14 20:58:43;;;;;;;10.18;4.20;;;;;;;1.90;58.09;99058.16;4999609;28;20470;-49
